createdAt,value
2023-01-09T00:18:01.633Z,19.2
2023-01-09T00:38:01.637Z,19.1
2023-01-09T00:58:01.625Z,19.1
2023-01-09T01:18:01.558Z,19.1
2023-01-09T01:38:01.605Z,19.0
2023-01-09T01:58:01.539Z,19.0
2023-01-09T02:18:01.551Z,19.0
2023-01-09T02:38:01.495Z,18.9
2023-01-09T02:58:01.468Z,18.9
2023-01-09T03:18:01.452Z,18.9
2023-01-09T03:38:01.470Z,18.9
2023-01-09T03:58:01.452Z,18.8
2023-01-09T04:18:01.394Z,19.0
2023-01-09T04:38:01.349Z,19.2
2023-01-09T04:58:01.317Z,19.3
2023-01-09T05:18:01.287Z,19.5
2023-01-09T05:38:01.269Z,19.6
2023-01-09T05:58:01.232Z,19.7
2023-01-09T06:18:01.216Z,19.8
2023-01-09T06:38:01.265Z,19.9
2023-01-09T06:58:01.187Z,19.9
2023-01-09T07:18:01.139Z,20.0
2023-01-09T07:38:01.117Z,20.0
2023-01-09T07:58:01.093Z,20.0
2023-01-09T08:18:01.097Z,20.1
2023-01-09T08:38:01.127Z,20.1
2023-01-09T08:58:01.028Z,20.2
2023-01-09T09:18:00.981Z,20.2
2023-01-09T09:38:01.002Z,20.2
2023-01-09T09:58:00.929Z,20.2
2023-01-09T10:18:00.881Z,20.2
2023-01-09T10:38:00.925Z,20.2
2023-01-09T10:58:00.868Z,20.2
2023-01-09T11:18:00.832Z,20.2
2023-01-09T11:38:00.810Z,20.2
2023-01-09T11:58:00.799Z,20.2
2023-01-09T12:18:00.745Z,20.2
2023-01-09T12:38:00.812Z,20.2
2023-01-09T12:58:00.677Z,20.2
2023-01-09T13:18:00.701Z,20.2
2023-01-09T13:38:00.671Z,20.2
2023-01-09T13:58:00.615Z,20.3
2023-01-09T14:18:00.620Z,20.3
2023-01-09T14:38:00.616Z,20.3
2023-01-09T14:58:00.540Z,20.3
2023-01-09T15:18:00.533Z,20.3
2023-01-09T15:38:00.498Z,20.3
2023-01-09T15:58:00.465Z,20.3
2023-01-09T16:18:00.433Z,20.3
2023-01-09T16:38:00.396Z,20.3
2023-01-09T16:58:00.403Z,20.3
2023-01-09T17:18:00.360Z,20.3
2023-01-09T17:38:00.374Z,20.3
2023-01-09T17:58:00.340Z,20.3
2023-01-09T18:18:00.302Z,20.5
2023-01-09T18:38:00.265Z,20.7
2023-01-09T18:58:00.271Z,20.8
2023-01-09T19:18:00.274Z,20.9
2023-01-09T19:38:00.251Z,21.0
2023-01-09T19:58:00.183Z,20.9
2023-01-09T20:18:00.122Z,20.7
2023-01-09T20:38:00.123Z,20.4
2023-01-09T20:58:00.098Z,20.3
2023-01-09T21:18:00.129Z,20.2
2023-01-09T21:38:00.066Z,20.0
2023-01-09T21:58:00.085Z,19.9
2023-01-09T22:17:59.972Z,19.8
2023-01-09T22:37:59.954Z,19.7
2023-01-09T22:57:59.937Z,19.6
2023-01-09T23:17:59.955Z,19.5
2023-01-09T23:37:59.869Z,19.4
2023-01-09T23:57:59.885Z,19.4
